sensor_id;sensor_type;location;lat;lon;timestamp;pressure;altitude;pressure_sealevel;temperature;humidity
60974;BME280;46846;51.528;5.076;2023-02-04T00:00:12;102778.53;;;7.23;82.54
60974;BME280;46846;51.528;5.076;2023-02-04T00:02:39;102782.03;;;7.23;82.19
60974;BME280;46846;51.528;5.076;2023-02-04T00:05:04;102773.16;;;7.20;82.32
60974;BME280;46846;51.528;5.076;2023-02-04T00:07:30;102774.09;;;7.23;82.29
60974;BME280;46846;51.528;5.076;2023-02-04T00:09:55;102774.03;;;7.19;81.90
60974;BME280;46846;51.528;5.076;2023-02-04T00:12:20;102777.59;;;7.19;82.32
60974;BME280;46846;51.528;5.076;2023-02-04T00:14:46;102779.31;;;7.17;82.64
60974;BME280;46846;51.528;5.076;2023-02-04T00:17:11;102786.38;;;7.18;82.40
60974;BME280;46846;51.528;5.076;2023-02-04T00:19:38;102780.25;;;7.19;82.00
60974;BME280;46846;51.528;5.076;2023-02-04T00:22:04;102780.25;;;7.19;82.33
60974;BME280;46846;51.528;5.076;2023-02-04T00:24:31;102787.28;;;7.19;82.12
60974;BME280;46846;51.528;5.076;2023-02-04T00:26:56;102782.81;;;7.15;82.01
60974;BME280;46846;51.528;5.076;2023-02-04T00:29:21;102781.97;;;7.17;82.22
60974;BME280;46846;51.528;5.076;2023-02-04T00:31:47;102782.81;;;7.13;81.80
60974;BME280;46846;51.528;5.076;2023-02-04T00:34:12;102782.81;;;7.15;82.29
60974;BME280;46846;51.528;5.076;2023-02-04T00:36:37;102774.78;;;7.07;82.23
60974;BME280;46846;51.528;5.076;2023-02-04T00:39:03;102771.31;;;7.09;82.26
60974;BME280;46846;51.528;5.076;2023-02-04T00:41:28;102771.25;;;7.06;82.10
60974;BME280;46846;51.528;5.076;2023-02-04T00:43:53;102775.66;;;7.04;82.23
60974;BME280;46846;51.528;5.076;2023-02-04T00:46:19;102762.41;;;7.04;82.08
60974;BME280;46846;51.528;5.076;2023-02-04T00:48:44;102774.81;;;7.10;82.38
60974;BME280;46846;51.528;5.076;2023-02-04T00:51:09;102770.41;;;7.09;82.10
60974;BME280;46846;51.528;5.076;2023-02-04T00:53:35;102773.91;;;7.06;82.02
60974;BME280;46846;51.528;5.076;2023-02-04T00:56:00;102777.38;;;7.01;81.90
60974;BME280;46846;51.528;5.076;2023-02-04T00:58:25;102778.28;;;7.04;82.17
60974;BME280;46846;51.528;5.076;2023-02-04T01:00:51;102771.19;;;7.02;82.02
60974;BME280;46846;51.528;5.076;2023-02-04T01:03:16;102781.81;;;7.03;82.32
60974;BME280;46846;51.528;5.076;2023-02-04T01:05:42;102786.16;;;6.96;82.14
60974;BME280;46846;51.528;5.076;2023-02-04T01:08:07;102789.66;;;6.95;82.48
60974;BME280;46846;51.528;5.076;2023-02-04T01:10:32;102786.16;;;6.96;81.98
60974;BME280;46846;51.528;5.076;2023-02-04T01:12:58;102785.28;;;6.99;82.43
60974;BME280;46846;51.528;5.076;2023-02-04T01:15:23;102783.50;;;6.98;82.35
60974;BME280;46846;51.528;5.076;2023-02-04T01:17:48;102794.94;;;6.95;82.16
60974;BME280;46846;51.528;5.076;2023-02-04T01:20:14;102794.88;;;6.91;82.06
60974;BME280;46846;51.528;5.076;2023-02-04T01:22:39;102797.63;;;6.97;82.48
60974;BME280;46846;51.528;5.076;2023-02-04T01:25:04;102797.59;;;6.94;82.19
60974;BME280;46846;51.528;5.076;2023-02-04T01:27:30;102798.53;;;6.97;82.31
60974;BME280;46846;51.528;5.076;2023-02-04T01:29:55;102796.78;;;7.00;82.10
60974;BME280;46846;51.528;5.076;2023-02-04T01:32:21;102800.34;;;7.03;81.75
60974;BME280;46846;51.528;5.076;2023-02-04T01:34:46;102800.25;;;6.97;82.14
60974;BME280;46846;51.528;5.076;2023-02-04T01:37:11;102803.78;;;6.96;81.99
60974;BME280;46846;51.528;5.076;2023-02-04T01:39:37;102804.63;;;6.93;82.20
60974;BME280;46846;51.528;5.076;2023-02-04T01:42:03;102799.34;;;6.93;82.18
60974;BME280;46846;51.528;5.076;2023-02-04T01:44:28;102805.53;;;6.94;82.02
60974;BME280;46846;51.528;5.076;2023-02-04T01:46:54;102810.84;;;6.97;81.78
60974;BME280;46846;51.528;5.076;2023-02-04T01:49:20;102809.94;;;6.93;81.84
60974;BME280;46846;51.528;5.076;2023-02-04T01:51:45;102814.31;;;6.91;81.90
60974;BME280;46846;51.528;5.076;2023-02-04T01:54:13;102819.59;;;6.90;82.18
60974;BME280;46846;51.528;5.076;2023-02-04T01:56:42;102819.63;;;6.91;82.00
60974;BME280;46846;51.528;5.076;2023-02-04T01:59:11;102827.56;;;6.91;81.89
60974;BME280;46846;51.528;5.076;2023-02-04T02:01:40;102837.25;;;6.92;82.20
60974;BME280;46846;51.528;5.076;2023-02-04T02:04:14;102824.00;;;6.91;82.02
60974;BME280;46846;51.528;5.076;2023-02-04T02:06:44;102821.34;;;6.91;81.91
60974;BME280;46846;51.528;5.076;2023-02-04T02:09:10;102817.78;;;6.87;82.06
60974;BME280;46846;51.528;5.076;2023-02-04T02:11:36;102823.06;;;6.87;81.65
60974;BME280;46846;51.528;5.076;2023-02-04T02:14:02;102822.19;;;6.88;81.61
60974;BME280;46846;51.528;5.076;2023-02-04T02:16:27;102823.94;;;6.86;81.80
60974;BME280;46846;51.528;5.076;2023-02-04T02:18:53;102827.47;;;6.85;81.76
60974;BME280;46846;51.528;5.076;2023-02-04T02:21:19;102819.47;;;6.80;81.54
60974;BME280;46846;51.528;5.076;2023-02-04T02:23:54;102822.16;;;6.82;81.86
60974;BME280;46846;51.528;5.076;2023-02-04T02:26:22;102822.16;;;6.82;81.98
60974;BME280;46846;51.528;5.076;2023-02-04T02:28:49;102831.81;;;6.81;81.79
60974;BME280;46846;51.528;5.076;2023-02-04T02:31:17;102825.63;;;6.81;81.78
60974;BME280;46846;51.528;5.076;2023-02-04T02:33:44;102829.19;;;6.81;81.97
60974;BME280;46846;51.528;5.076;2023-02-04T02:36:10;102833.56;;;6.81;81.85
60974;BME280;46846;51.528;5.076;2023-02-04T02:38:35;102830.97;;;6.84;81.76
60974;BME280;46846;51.528;5.076;2023-02-04T02:41:01;102835.31;;;6.79;81.90
60974;BME280;46846;51.528;5.076;2023-02-04T02:43:27;102831.72;;;6.74;81.80
60974;BME280;46846;51.528;5.076;2023-02-04T02:45:53;102833.41;;;6.68;82.00
60974;BME280;46846;51.528;5.076;2023-02-04T02:48:19;102837.84;;;6.69;81.90
60974;BME280;46846;51.528;5.076;2023-02-04T02:50:44;102834.31;;;6.70;82.13
60974;BME280;46846;51.528;5.076;2023-02-04T02:53:15;102839.69;;;6.75;81.71
60974;BME280;46846;51.528;5.076;2023-02-04T02:55:42;102838.81;;;6.75;82.00
60974;BME280;46846;51.528;5.076;2023-02-04T02:58:27;102844.91;;;6.70;82.13
60974;BME280;46846;51.528;5.076;2023-02-04T03:00:54;102845.81;;;6.71;81.77
60974;BME280;46846;51.528;5.076;2023-02-04T03:03:23;102851.97;;;6.70;81.97
60974;BME280;46846;51.528;5.076;2023-02-04T03:05:53;102848.44;;;6.69;81.81
60974;BME280;46846;51.528;5.076;2023-02-04T03:08:20;102843.94;;;6.64;82.17
60974;BME280;46846;51.528;5.076;2023-02-04T03:10:46;102843.91;;;6.62;81.86
60974;BME280;46846;51.528;5.076;2023-02-04T03:13:13;102848.28;;;6.62;82.14
60974;BME280;46846;51.528;5.076;2023-02-04T03:15:41;102851.81;;;6.61;82.07
60974;BME280;46846;51.528;5.076;2023-02-04T03:18:08;102858.09;;;6.67;82.09
60974;BME280;46846;51.528;5.076;2023-02-04T03:20:34;102858.97;;;6.66;81.69
60974;BME280;46846;51.528;5.076;2023-02-04T03:22:59;102854.53;;;6.65;81.75
60974;BME280;46846;51.528;5.076;2023-02-04T03:25:25;102858.03;;;6.63;82.04
60974;BME280;46846;51.528;5.076;2023-02-04T03:27:53;102857.16;;;6.64;82.27
60974;BME280;46846;51.528;5.076;2023-02-04T03:30:20;102854.53;;;6.64;81.57
60974;BME280;46846;51.528;5.076;2023-02-04T03:32:45;102860.66;;;6.61;81.61
60974;BME280;46846;51.528;5.076;2023-02-04T03:35:11;102863.22;;;6.58;81.86
60974;BME280;46846;51.528;5.076;2023-02-04T03:37:36;102857.94;;;6.56;81.73
60974;BME280;46846;51.528;5.076;2023-02-04T03:40:02;102865.88;;;6.56;81.98
60974;BME280;46846;51.528;5.076;2023-02-04T03:42:27;102869.38;;;6.54;82.05
60974;BME280;46846;51.528;5.076;2023-02-04T03:44:53;102865.84;;;6.55;81.93
60974;BME280;46846;51.528;5.076;2023-02-04T03:47:18;102866.66;;;6.51;82.45
60974;BME280;46846;51.528;5.076;2023-02-04T03:49:43;102871.94;;;6.49;82.14
60974;BME280;46846;51.528;5.076;2023-02-04T03:52:08;102882.44;;;6.45;81.86
60974;BME280;46846;51.528;5.076;2023-02-04T03:54:34;102890.38;;;6.46;82.11
60974;BME280;46846;51.528;5.076;2023-02-04T03:56:59;102888.66;;;6.47;81.92
60974;BME280;46846;51.528;5.076;2023-02-04T03:59:24;102890.38;;;6.46;82.10
60974;BME280;46846;51.528;5.076;2023-02-04T04:01:50;102895.59;;;6.41;82.18
60974;BME280;46846;51.528;5.076;2023-02-04T04:04:16;102894.72;;;6.41;82.07
60974;BME280;46846;51.528;5.076;2023-02-04T04:06:42;102890.28;;;6.40;82.24
60974;BME280;46846;51.528;5.076;2023-02-04T04:09:07;102891.22;;;6.42;82.17
60974;BME280;46846;51.528;5.076;2023-02-04T04:11:32;102897.31;;;6.38;82.36
60974;BME280;46846;51.528;5.076;2023-02-04T04:13:58;102907.06;;;6.40;82.16
60974;BME280;46846;51.528;5.076;2023-02-04T04:16:23;102902.63;;;6.39;82.19
60974;BME280;46846;51.528;5.076;2023-02-04T04:18:48;102900.91;;;6.41;81.93
60974;BME280;46846;51.528;5.076;2023-02-04T04:21:14;102903.56;;;6.43;81.98
60974;BME280;46846;51.528;5.076;2023-02-04T04:23:39;102899.19;;;6.45;82.37
60974;BME280;46846;51.528;5.076;2023-02-04T04:26:04;102901.06;;;6.52;82.26
60974;BME280;46846;51.528;5.076;2023-02-04T04:28:30;102904.63;;;6.53;81.57
60974;BME280;46846;51.528;5.076;2023-02-04T04:30:55;102903.59;;;6.45;81.72
60974;BME280;46846;51.528;5.076;2023-02-04T04:33:21;102899.16;;;6.43;81.98
60974;BME280;46846;51.528;5.076;2023-02-04T04:35:46;102906.19;;;6.41;81.68
60974;BME280;46846;51.528;5.076;2023-02-04T04:38:12;102908.78;;;6.40;82.18
60974;BME280;46846;51.528;5.076;2023-02-04T04:40:37;102912.38;;;6.43;81.87
60974;BME280;46846;51.528;5.076;2023-02-04T04:43:02;102915.84;;;6.39;82.08
60974;BME280;46846;51.528;5.076;2023-02-04T04:45:29;102917.59;;;6.39;82.21
60974;BME280;46846;51.528;5.076;2023-02-04T04:47:54;102917.53;;;6.34;82.17
60974;BME280;46846;51.528;5.076;2023-02-04T04:50:20;102917.53;;;6.33;82.13
60974;BME280;46846;51.528;5.076;2023-02-04T04:52:45;102917.53;;;6.34;82.22
60974;BME280;46846;51.528;5.076;2023-02-04T04:55:11;102926.41;;;6.36;82.18
60974;BME280;46846;51.528;5.076;2023-02-04T04:57:37;102920.19;;;6.36;82.10
60974;BME280;46846;51.528;5.076;2023-02-04T05:00:04;102914.88;;;6.33;81.94
60974;BME280;46846;51.528;5.076;2023-02-04T05:02:30;102921.88;;;6.31;82.08
60974;BME280;46846;51.528;5.076;2023-02-04T05:04:55;102921.00;;;6.30;81.79
60974;BME280;46846;51.528;5.076;2023-02-04T05:07:21;102930.66;;;6.29;81.63
60974;BME280;46846;51.528;5.076;2023-02-04T05:09:46;102927.16;;;6.31;81.81
60974;BME280;46846;51.528;5.076;2023-02-04T05:12:11;102928.97;;;6.33;81.65
60974;BME280;46846;51.528;5.076;2023-02-04T05:14:37;102927.22;;;6.34;81.80
60974;BME280;46846;51.528;5.076;2023-02-04T05:17:02;102921.09;;;6.36;81.91
60974;BME280;46846;51.528;5.076;2023-02-04T05:19:28;102927.22;;;6.34;82.04
60974;BME280;46846;51.528;5.076;2023-02-04T05:21:53;102936.03;;;6.33;81.47
60974;BME280;46846;51.528;5.076;2023-02-04T05:24:18;102933.34;;;6.31;82.12
60974;BME280;46846;51.528;5.076;2023-02-04T05:26:43;102924.50;;;6.29;81.95
60974;BME280;46846;51.528;5.076;2023-02-04T05:29:09;102920.06;;;6.26;81.86
60974;BME280;46846;51.528;5.076;2023-02-04T05:31:34;102929.69;;;6.24;81.46
60974;BME280;46846;51.528;5.076;2023-02-04T05:34:00;102919.06;;;6.21;81.48
60974;BME280;46846;51.528;5.076;2023-02-04T05:36:26;102914.66;;;6.20;82.02
60974;BME280;46846;51.528;5.076;2023-02-04T05:38:52;102918.09;;;6.14;82.06
60974;BME280;46846;51.528;5.076;2023-02-04T05:41:17;102927.78;;;6.15;82.03
60974;BME280;46846;51.528;5.076;2023-02-04T05:43:42;102928.66;;;6.16;82.08
60974;BME280;46846;51.528;5.076;2023-02-04T05:46:08;102932.19;;;6.15;81.88
60974;BME280;46846;51.528;5.076;2023-02-04T05:48:33;102936.59;;;6.14;82.11
60974;BME280;46846;51.528;5.076;2023-02-04T05:50:59;102932.13;;;6.13;81.98
60974;BME280;46846;51.528;5.076;2023-02-04T05:53:24;102931.22;;;6.11;81.94
60974;BME280;46846;51.528;5.076;2023-02-04T05:55:50;102932.97;;;6.09;82.01
60974;BME280;46846;51.528;5.076;2023-02-04T05:58:15;102942.63;;;6.07;81.89
60974;BME280;46846;51.528;5.076;2023-02-04T06:00:40;102949.69;;;6.10;82.27
60974;BME280;46846;51.528;5.076;2023-02-04T06:03:06;102950.56;;;6.09;82.52
60974;BME280;46846;51.528;5.076;2023-02-04T06:05:31;102954.97;;;6.08;82.35
60974;BME280;46846;51.528;5.076;2023-02-04T06:07:57;102957.63;;;6.08;81.74
60974;BME280;46846;51.528;5.076;2023-02-04T06:10:22;102960.25;;;6.08;82.10
60974;BME280;46846;51.528;5.076;2023-02-04T06:12:48;102962.00;;;6.08;82.00
60974;BME280;46846;51.528;5.076;2023-02-04T06:15:13;102969.03;;;6.06;82.29
60974;BME280;46846;51.528;5.076;2023-02-04T06:17:39;102971.66;;;6.06;81.71
60974;BME280;46846;51.528;5.076;2023-02-04T06:20:05;102978.75;;;6.08;82.06
60974;BME280;46846;51.528;5.076;2023-02-04T06:22:31;102982.28;;;6.09;81.81
60974;BME280;46846;51.528;5.076;2023-02-04T06:24:56;102977.84;;;6.08;81.69
60974;BME280;46846;51.528;5.076;2023-02-04T06:27:22;102972.53;;;6.06;82.15
60974;BME280;46846;51.528;5.076;2023-02-04T06:29:49;102969.78;;;6.01;82.04
60974;BME280;46846;51.528;5.076;2023-02-04T06:32:15;102975.13;;;6.03;82.00
60974;BME280;46846;51.528;5.076;2023-02-04T06:34:40;102978.66;;;6.02;81.98
60974;BME280;46846;51.528;5.076;2023-02-04T06:37:06;102982.13;;;6.01;81.67
60974;BME280;46846;51.528;5.076;2023-02-04T06:39:31;102979.47;;;6.01;81.78
60974;BME280;46846;51.528;5.076;2023-02-04T06:41:56;102988.28;;;6.01;81.84
60974;BME280;46846;51.528;5.076;2023-02-04T06:44:22;102991.78;;;6.00;81.80
60974;BME280;46846;51.528;5.076;2023-02-04T06:46:47;102992.59;;;5.98;82.12
60974;BME280;46846;51.528;5.076;2023-02-04T06:49:13;102992.59;;;5.98;81.79
60974;BME280;46846;51.528;5.076;2023-02-04T06:51:38;102995.25;;;5.98;81.69
60974;BME280;46846;51.528;5.076;2023-02-04T06:54:03;103003.19;;;5.98;82.05
60974;BME280;46846;51.528;5.076;2023-02-04T06:56:29;103009.34;;;5.97;81.97
60974;BME280;46846;51.528;5.076;2023-02-04T06:58:54;103008.47;;;5.98;82.16
60974;BME280;46846;51.528;5.076;2023-02-04T07:01:20;103017.34;;;6.00;81.91
60974;BME280;46846;51.528;5.076;2023-02-04T07:03:45;103008.59;;;6.02;81.70
60974;BME280;46846;51.528;5.076;2023-02-04T07:06:11;103012.13;;;6.03;81.79
60974;BME280;46846;51.528;5.076;2023-02-04T07:08:36;103009.53;;;6.05;81.57
60974;BME280;46846;51.528;5.076;2023-02-04T07:11:01;103009.56;;;6.08;81.94
60974;BME280;46846;51.528;5.076;2023-02-04T07:13:27;103006.03;;;6.06;81.54
60974;BME280;46846;51.528;5.076;2023-02-04T07:15:52;103005.06;;;6.02;81.53
60974;BME280;46846;51.528;5.076;2023-02-04T07:18:18;103012.06;;;6.00;82.04
60974;BME280;46846;51.528;5.076;2023-02-04T07:20:44;103011.16;;;5.99;82.00
60974;BME280;46846;51.528;5.076;2023-02-04T07:23:09;103012.94;;;6.00;81.61
60974;BME280;46846;51.528;5.076;2023-02-04T07:25:35;103026.13;;;6.00;81.31
60974;BME280;46846;51.528;5.076;2023-02-04T07:28:00;103019.97;;;6.00;81.54
60974;BME280;46846;51.528;5.076;2023-02-04T07:30:27;103038.47;;;6.00;81.97
60974;BME280;46846;51.528;5.076;2023-02-04T07:32:53;103029.69;;;6.01;81.50
60974;BME280;46846;51.528;5.076;2023-02-04T07:35:18;103036.72;;;5.99;81.84
60974;BME280;46846;51.528;5.076;2023-02-04T07:37:44;103042.88;;;5.99;81.29
60974;BME280;46846;51.528;5.076;2023-02-04T07:40:11;103041.13;;;6.00;81.31
60974;BME280;46846;51.528;5.076;2023-02-04T07:42:36;103047.28;;;6.00;81.67
60974;BME280;46846;51.528;5.076;2023-02-04T07:45:02;103055.22;;;6.00;81.79
60974;BME280;46846;51.528;5.076;2023-02-04T07:47:27;103054.34;;;6.00;81.35
60974;BME280;46846;51.528;5.076;2023-02-04T07:49:52;103049.94;;;6.00;81.65
60974;BME280;46846;51.528;5.076;2023-02-04T07:52:24;103053.44;;;5.99;81.43
60974;BME280;46846;51.528;5.076;2023-02-04T07:54:50;103045.53;;;6.01;81.71
60974;BME280;46846;51.528;5.076;2023-02-04T07:57:18;103052.66;;;6.02;81.42
60974;BME280;46846;51.528;5.076;2023-02-04T07:59:43;103051.78;;;6.03;81.48
60974;BME280;46846;51.528;5.076;2023-02-04T08:02:09;103044.72;;;6.02;81.30
60974;BME280;46846;51.528;5.076;2023-02-04T08:04:35;103047.28;;;5.99;81.56
60974;BME280;46846;51.528;5.076;2023-02-04T08:07:02;103054.44;;;6.03;81.32
60974;BME280;46846;51.528;5.076;2023-02-04T08:09:28;103057.09;;;6.05;81.61
60974;BME280;46846;51.528;5.076;2023-02-04T08:11:53;103064.13;;;6.04;81.57
60974;BME280;46846;51.528;5.076;2023-02-04T08:14:18;103062.34;;;6.03;81.55
60974;BME280;46846;51.528;5.076;2023-02-04T08:16:44;103065.00;;;6.03;81.56
60974;BME280;46846;51.528;5.076;2023-02-04T08:19:09;103070.28;;;6.03;81.59
60974;BME280;46846;51.528;5.076;2023-02-04T08:21:35;103070.31;;;6.06;81.33
60974;BME280;46846;51.528;5.076;2023-02-04T08:24:00;103070.38;;;6.08;81.41
60974;BME280;46846;51.528;5.076;2023-02-04T08:26:26;103074.78;;;6.09;80.92
60974;BME280;46846;51.528;5.076;2023-02-04T08:28:51;103081.91;;;6.11;81.32
60974;BME280;46846;51.528;5.076;2023-02-04T08:31:16;103077.53;;;6.13;81.25
60974;BME280;46846;51.528;5.076;2023-02-04T08:33:42;103083.69;;;6.12;81.21
60974;BME280;46846;51.528;5.076;2023-02-04T08:36:07;103081.03;;;6.12;80.92
60974;BME280;46846;51.528;5.076;2023-02-04T08:38:34;103085.31;;;6.06;80.89
60974;BME280;46846;51.528;5.076;2023-02-04T08:40:59;103086.19;;;6.06;80.88
60974;BME280;46846;51.528;5.076;2023-02-04T08:43:25;103086.19;;;6.05;81.03
60974;BME280;46846;51.528;5.076;2023-02-04T08:45:51;103093.19;;;6.04;81.15
60974;BME280;46846;51.528;5.076;2023-02-04T08:48:16;103094.00;;;6.01;81.08
60974;BME280;46846;51.528;5.076;2023-02-04T08:50:42;103095.72;;;5.99;81.16
60974;BME280;46846;51.528;5.076;2023-02-04T08:53:07;103103.66;;;5.99;81.50
60974;BME280;46846;51.528;5.076;2023-02-04T08:55:32;103101.91;;;6.00;81.27
60974;BME280;46846;51.528;5.076;2023-02-04T08:57:58;103107.16;;;5.98;81.52
60974;BME280;46846;51.528;5.076;2023-02-04T09:00:25;103105.38;;;5.97;80.94
60974;BME280;46846;51.528;5.076;2023-02-04T09:02:51;103110.69;;;5.99;81.28
60974;BME280;46846;51.528;5.076;2023-02-04T09:05:16;103103.69;;;6.01;80.96
60974;BME280;46846;51.528;5.076;2023-02-04T09:07:41;103116.06;;;6.02;80.96
60974;BME280;46846;51.528;5.076;2023-02-04T09:10:07;103115.22;;;6.03;81.56
60974;BME280;46846;51.528;5.076;2023-02-04T09:12:33;103120.53;;;6.06;81.27
60974;BME280;46846;51.528;5.076;2023-02-04T09:14:58;103118.81;;;6.07;81.21
60974;BME280;46846;51.528;5.076;2023-02-04T09:17:23;103118.81;;;6.07;81.34
60974;BME280;46846;51.528;5.076;2023-02-04T09:19:49;103123.28;;;6.09;81.00
60974;BME280;46846;51.528;5.076;2023-02-04T09:22:14;103125.09;;;6.13;81.20
60974;BME280;46846;51.528;5.076;2023-02-04T09:24:40;103121.63;;;6.14;81.11
60974;BME280;46846;51.528;5.076;2023-02-04T09:27:05;103123.41;;;6.15;80.99
60974;BME280;46846;51.528;5.076;2023-02-04T09:29:31;103120.78;;;6.15;80.76
60974;BME280;46846;51.528;5.076;2023-02-04T09:31:56;103132.22;;;6.14;80.97
60974;BME280;46846;51.528;5.076;2023-02-04T09:34:22;103126.91;;;6.14;81.11
60974;BME280;46846;51.528;5.076;2023-02-04T09:36:48;103122.53;;;6.17;81.09
60974;BME280;46846;51.528;5.076;2023-02-04T09:39:13;103136.69;;;6.19;81.47
60974;BME280;46846;51.528;5.076;2023-02-04T09:41:39;103131.44;;;6.20;81.04
60974;BME280;46846;51.528;5.076;2023-02-04T09:44:11;103139.41;;;6.22;81.41
60974;BME280;46846;51.528;5.076;2023-02-04T09:46:38;103139.47;;;6.25;81.34
60974;BME280;46846;51.528;5.076;2023-02-04T09:49:04;103138.59;;;6.26;81.28
60974;BME280;46846;51.528;5.076;2023-02-04T09:51:33;103141.28;;;6.27;81.17
60974;BME280;46846;51.528;5.076;2023-02-04T09:54:05;103145.66;;;6.27;81.38
60974;BME280;46846;51.528;5.076;2023-02-04T09:56:32;103138.69;;;6.29;81.43
60974;BME280;46846;51.528;5.076;2023-02-04T09:58:57;103142.19;;;6.29;81.86
60974;BME280;46846;51.528;5.076;2023-02-04T10:01:23;103150.22;;;6.33;82.11
60974;BME280;46846;51.528;5.076;2023-02-04T10:03:48;103158.16;;;6.34;81.70
60974;BME280;46846;51.528;5.076;2023-02-04T10:06:20;103147.63;;;6.36;82.07
60974;BME280;46846;51.528;5.076;2023-02-04T10:08:46;103152.94;;;6.39;82.25
60974;BME280;46846;51.528;5.076;2023-02-04T10:11:14;103159.16;;;6.39;82.21
60974;BME280;46846;51.528;5.076;2023-02-04T10:13:48;103162.66;;;6.38;82.80
60974;BME280;46846;51.528;5.076;2023-02-04T10:16:23;103161.75;;;6.36;82.07
60974;BME280;46846;51.528;5.076;2023-02-04T10:18:55;103155.50;;;6.34;81.95
60974;BME280;46846;51.528;5.076;2023-02-04T10:21:24;103159.97;;;6.37;82.66
60974;BME280;46846;51.528;5.076;2023-02-04T10:23:54;103161.75;;;6.38;83.13
60974;BME280;46846;51.528;5.076;2023-02-04T10:26:25;103158.22;;;6.37;82.35
60974;BME280;46846;51.528;5.076;2023-02-04T10:29:04;103153.84;;;6.39;82.56
60974;BME280;46846;51.528;5.076;2023-02-04T10:31:35;103153.91;;;6.42;83.17
60974;BME280;46846;51.528;5.076;2023-02-04T10:34:15;103162.78;;;6.45;82.85
60974;BME280;46846;51.528;5.076;2023-02-04T10:36:43;103161.06;;;6.47;83.05
60974;BME280;46846;51.528;5.076;2023-02-04T10:39:13;103166.19;;;6.39;82.48
60974;BME280;46846;51.528;5.076;2023-02-04T10:41:47;103164.25;;;6.30;82.70
60974;BME280;46846;51.528;5.076;2023-02-04T10:44:15;103165.31;;;6.38;83.05
60974;BME280;46846;51.528;5.076;2023-02-04T10:46:41;103158.31;;;6.42;83.23
60974;BME280;46846;51.528;5.076;2023-02-04T10:49:18;103168.03;;;6.43;82.98
60974;BME280;46846;51.528;5.076;2023-02-04T10:51:44;103171.47;;;6.39;82.32
60974;BME280;46846;51.528;5.076;2023-02-04T10:54:11;103167.13;;;6.42;82.86
60974;BME280;46846;51.528;5.076;2023-02-04T10:57:17;103167.22;;;6.46;83.12
60974;BME280;46846;51.528;5.076;2023-02-04T10:59:45;103163.69;;;6.47;82.84
60974;BME280;46846;51.528;5.076;2023-02-04T11:05:16;103172.59;;;6.50;83.00
60974;BME280;46846;51.528;5.076;2023-02-04T11:07:44;103170.88;;;6.52;82.79
60974;BME280;46846;51.528;5.076;2023-02-04T11:10:15;103171.78;;;6.53;83.11
60974;BME280;46846;51.528;5.076;2023-02-04T11:15:46;103169.19;;;6.56;82.77
60974;BME280;46846;51.528;5.076;2023-02-04T11:20:51;103167.25;;;6.49;82.12
60974;BME280;46846;51.528;5.076;2023-02-04T11:26:12;103169.13;;;6.54;83.10
60974;BME280;46846;51.528;5.076;2023-02-04T11:36:32;103175.38;;;6.58;82.94
60974;BME280;46846;51.528;5.076;2023-02-04T11:39:06;103169.25;;;6.59;82.14
60974;BME280;46846;51.528;5.076;2023-02-04T11:41:37;103166.59;;;6.59;82.11
60974;BME280;46846;51.528;5.076;2023-02-04T11:44:02;103169.34;;;6.64;82.61
60974;BME280;46846;51.528;5.076;2023-02-04T11:46:28;103159.72;;;6.67;82.06
60974;BME280;46846;51.528;5.076;2023-02-04T11:48:55;103166.78;;;6.68;82.43
60974;BME280;46846;51.528;5.076;2023-02-04T11:51:27;103162.28;;;6.64;81.84
60974;BME280;46846;51.528;5.076;2023-02-04T11:53:54;103158.81;;;6.67;81.95
60974;BME280;46846;51.528;5.076;2023-02-04T11:56:20;103157.94;;;6.68;82.03
60974;BME280;46846;51.528;5.076;2023-02-04T11:58:46;103149.13;;;6.69;82.27
60974;BME280;46846;51.528;5.076;2023-02-04T12:01:19;103150.06;;;6.71;81.98
60974;BME280;46846;51.528;5.076;2023-02-04T12:03:50;103159.00;;;6.78;81.74
60974;BME280;46846;51.528;5.076;2023-02-04T12:06:25;103149.41;;;6.83;82.10
60974;BME280;46846;51.528;5.076;2023-02-04T12:08:51;103147.69;;;6.85;82.00
60974;BME280;46846;51.528;5.076;2023-02-04T12:11:25;103146.81;;;6.86;81.86
60974;BME280;46846;51.528;5.076;2023-02-04T12:13:56;103151.13;;;6.81;81.73
60974;BME280;46846;51.528;5.076;2023-02-04T12:16:22;103145.00;;;6.82;81.88
60974;BME280;46846;51.528;5.076;2023-02-04T12:18:48;103156.50;;;6.84;82.01
60974;BME280;46846;51.528;5.076;2023-02-04T12:21:14;103154.75;;;6.86;81.83
60974;BME280;46846;51.528;5.076;2023-02-04T12:23:40;103154.75;;;6.86;81.63
60974;BME280;46846;51.528;5.076;2023-02-04T12:26:08;103154.75;;;6.86;81.74
60974;BME280;46846;51.528;5.076;2023-02-04T12:28:34;103158.31;;;6.87;81.60
60974;BME280;46846;51.528;5.076;2023-02-04T12:30:59;103153.88;;;6.87;81.95
60974;BME280;46846;51.528;5.076;2023-02-04T12:33:25;103151.28;;;6.89;82.04
60974;BME280;46846;51.528;5.076;2023-02-04T12:35:50;103153.06;;;6.90;81.55
60974;BME280;46846;51.528;5.076;2023-02-04T12:38:16;103152.22;;;6.92;81.64
60974;BME280;46846;51.528;5.076;2023-02-04T12:40:41;103152.22;;;6.92;81.68
60974;BME280;46846;51.528;5.076;2023-02-04T12:43:07;103157.47;;;6.89;81.56
60974;BME280;46846;51.528;5.076;2023-02-04T12:45:33;103155.75;;;6.91;81.58
60974;BME280;46846;51.528;5.076;2023-02-04T12:47:58;103163.69;;;6.91;81.24
60974;BME280;46846;51.528;5.076;2023-02-04T12:50:24;103167.25;;;6.93;81.50
60974;BME280;46846;51.528;5.076;2023-02-04T12:52:51;103160.22;;;6.95;81.33
60974;BME280;46846;51.528;5.076;2023-02-04T12:55:17;103167.31;;;6.98;81.68
60974;BME280;46846;51.528;5.076;2023-02-04T12:57:43;103167.31;;;6.96;81.40
60974;BME280;46846;51.528;5.076;2023-02-04T13:00:09;103164.66;;;6.98;81.46
60974;BME280;46846;51.528;5.076;2023-02-04T13:02:34;103169.97;;;6.96;81.60
60974;BME280;46846;51.528;5.076;2023-02-04T13:05:00;103162.97;;;7.00;81.54
60974;BME280;46846;51.528;5.076;2023-02-04T13:07:25;103166.56;;;7.04;81.45
60974;BME280;46846;51.528;5.076;2023-02-04T13:09:50;103163.91;;;7.04;81.79
60974;BME280;46846;51.528;5.076;2023-02-04T13:12:16;103161.28;;;7.05;81.44
60974;BME280;46846;51.528;5.076;2023-02-04T13:14:42;103164.78;;;7.04;81.92